Weather at Grand Bahama Auxiliary Airfield

Public forecast

Using degrees Celsius for public forecast. Weather courtesy of forecast.io.

Closest aviation weather report (METAR) to Grand Bahama Auxiliary Airfield

Closest report is Grand Bahama International Airport, 18.6 nm (34.4 km) WSW.

2024/05/26 22:00 (retrieved 20 minutes ago)

MYGF 262200Z 16007KT 130V190 9999 SCT025 30/24 A2994

Closest aviation forecast (TAF) to Grand Bahama Auxiliary Airfield

Closest forecast is Grand Bahama International Airport, 18.6 nm (34.4 km) WSW.

2024/05/26 18:18 (retrieved 4 hours ago)

TAF MYGF 261709Z 2618/2718 20006KT 9999 VCSH FEW016CB SCT045